createdAt,value
2023-05-13T00:00:42.211Z,38.74
2023-05-13T00:03:48.339Z,38.45
2023-05-13T00:06:53.742Z,38.81
2023-05-13T00:09:59.898Z,38.83
2023-05-13T00:12:58.828Z,38.65
2023-05-13T00:16:04.170Z,38.38
2023-05-13T00:19:03.173Z,38.39
2023-05-13T00:22:09.346Z,38.74
2023-05-13T00:25:15.256Z,38.62
2023-05-13T00:28:22.113Z,38.63
2023-05-13T00:31:28.044Z,39.13
2023-05-13T00:34:32.998Z,38.63
2023-05-13T00:37:39.610Z,38.71
2023-05-13T00:40:46.142Z,39.43
2023-05-13T00:43:52.164Z,39.20
2023-05-13T00:46:58.090Z,39.23
2023-05-13T00:50:04.606Z,39.25
2023-05-13T00:53:09.543Z,39.28
2023-05-13T00:56:14.543Z,39.64
2023-05-13T00:59:20.105Z,39.64
2023-05-13T01:02:52.229Z,39.83
2023-05-13T01:06:18.544Z,40.08
2023-05-13T01:09:31.489Z,40.01
2023-05-13T01:12:52.052Z,39.73
2023-05-13T01:15:52.090Z,39.59
2023-05-13T01:18:43.955Z,39.65
2023-05-13T01:21:37.416Z,39.86
2023-05-13T01:24:30.366Z,39.99
2023-05-13T01:27:35.271Z,39.69
2023-05-13T01:30:41.702Z,39.78
2023-05-13T01:33:47.579Z,40.06
2023-05-13T01:36:53.799Z,39.71
2023-05-13T01:40:00.028Z,39.76
2023-05-13T01:43:05.572Z,40.15
2023-05-13T01:46:06.323Z,40.34
2023-05-13T01:48:52.231Z,40.34
2023-05-13T01:51:45.191Z,40.34
2023-05-13T01:54:37.558Z,40.36
2023-05-13T01:57:44.770Z,40.52
2023-05-13T02:00:52.106Z,40.42
2023-05-13T02:03:57.973Z,40.23
2023-05-13T02:07:04.067Z,40.16
2023-05-13T02:10:08.878Z,40.04
2023-05-13T02:13:15.062Z,40.17
2023-05-13T02:16:21.898Z,40.24
2023-05-13T02:19:27.431Z,40.38
2023-05-13T02:22:32.690Z,40.24
2023-05-13T02:25:39.183Z,39.92
2023-05-13T02:28:45.274Z,39.74
2023-05-13T02:31:44.713Z,39.23
2023-05-13T02:34:51.585Z,39.11
2023-05-13T02:37:58.320Z,38.91
2023-05-13T02:41:03.971Z,38.60
2023-05-13T02:44:08.818Z,38.26
2023-05-13T02:47:14.937Z,38.38
2023-05-13T02:50:22.373Z,37.67
2023-05-13T02:53:28.270Z,37.64
2023-05-13T02:56:35.469Z,36.92
2023-05-13T02:59:40.745Z,36.66
2023-05-13T03:02:46.665Z,36.06
2023-05-13T03:05:52.396Z,35.89
2023-05-13T03:08:58.302Z,35.71
2023-05-13T03:12:05.566Z,35.48
2023-05-13T03:15:10.630Z,35.16
2023-05-13T03:18:16.633Z,35.04
2023-05-13T03:21:22.341Z,34.66
2023-05-13T03:24:27.882Z,34.30
2023-05-13T03:27:34.516Z,34.02
2023-05-13T03:30:39.490Z,33.40
2023-05-13T03:33:48.327Z,33.24
2023-05-13T03:36:54.623Z,33.70
2023-05-13T03:40:00.500Z,33.43
2023-05-13T03:43:07.231Z,33.31
2023-05-13T03:46:14.149Z,32.88
2023-05-13T03:49:20.629Z,32.65
2023-05-13T03:52:28.655Z,32.61
2023-05-13T03:55:34.423Z,32.43
2023-05-13T03:58:41.247Z,32.88
2023-05-13T04:01:46.505Z,32.58
2023-05-13T04:04:53.587Z,31.93
2023-05-13T04:07:59.404Z,32.00
2023-05-13T04:11:04.799Z,31.75
2023-05-13T04:14:10.791Z,31.24
2023-05-13T04:17:15.566Z,31.95
2023-05-13T04:20:23.722Z,30.84
2023-05-13T04:23:29.161Z,30.22
2023-05-13T04:26:28.132Z,30.44
2023-05-13T04:29:33.823Z,29.78
2023-05-13T04:32:38.813Z,30.20
2023-05-13T04:35:45.406Z,30.02
2023-05-13T04:38:50.195Z,30.28
2023-05-13T04:41:57.190Z,29.69
2023-05-13T04:45:04.496Z,29.61
2023-05-13T04:48:10.362Z,30.12
2023-05-13T04:51:16.790Z,31.96
2023-05-13T04:54:23.557Z,31.95
2023-05-13T04:57:27.997Z,32.87
2023-05-13T05:00:33.471Z,32.12
2023-05-13T05:03:38.960Z,32.28
2023-05-13T05:06:43.821Z,32.41
2023-05-13T05:09:50.509Z,32.24
2023-05-13T05:12:57.186Z,31.04
2023-05-13T05:16:03.048Z,31.28
2023-05-13T05:19:08.317Z,31.34
2023-05-13T05:22:06.867Z,30.83
2023-05-13T05:24:52.010Z,31.46
2023-05-13T05:27:44.261Z,32.02
2023-05-13T05:30:37.415Z,31.27
2023-05-13T05:33:45.564Z,31.85
2023-05-13T05:36:50.894Z,30.30
2023-05-13T05:39:56.845Z,30.27
2023-05-13T05:43:04.098Z,30.26
2023-05-13T05:46:10.134Z,30.93
2023-05-13T05:49:15.663Z,29.57
2023-05-13T05:52:23.464Z,29.51
2023-05-13T05:55:29.168Z,29.54
2023-05-13T05:58:35.294Z,30.01
2023-05-13T06:01:43.309Z,29.54
2023-05-13T06:04:48.585Z,30.15
2023-05-13T06:07:55.753Z,29.52
2023-05-13T06:11:03.488Z,30.23
2023-05-13T06:14:09.097Z,30.22
2023-05-13T06:17:08.914Z,29.50
2023-05-13T06:20:08.482Z,29.33
2023-05-13T06:23:14.216Z,28.97
2023-05-13T06:26:20.199Z,28.77
2023-05-13T06:29:25.633Z,28.28
2023-05-13T06:32:30.465Z,28.26
2023-05-13T06:35:36.391Z,27.97
2023-05-13T06:38:41.525Z,28.16
2023-05-13T06:41:46.868Z,27.77
2023-05-13T06:44:55.137Z,27.11
2023-05-13T06:48:02.576Z,26.54
2023-05-13T06:51:09.411Z,26.13
2023-05-13T06:54:14.498Z,24.92
2023-05-13T06:57:21.905Z,25.78
2023-05-13T07:00:29.924Z,24.70
2023-05-13T07:03:34.911Z,26.01
2023-05-13T07:06:39.675Z,25.07
2023-05-13T07:09:45.919Z,25.10
2023-05-13T07:12:51.578Z,24.98
2023-05-13T07:15:57.745Z,25.21
2023-05-13T07:19:02.900Z,23.85
2023-05-13T07:22:08.312Z,22.92
2023-05-13T07:25:14.029Z,22.70
2023-05-13T07:28:19.776Z,22.60
2023-05-13T07:31:25.504Z,22.55
2023-05-13T07:34:30.673Z,22.14
2023-05-13T07:37:37.021Z,21.06
2023-05-13T07:40:43.413Z,20.80
2023-05-13T07:43:48.913Z,22.30
2023-05-13T07:46:55.462Z,21.10
2023-05-13T07:49:54.469Z,21.87
2023-05-13T07:53:01.015Z,21.92
2023-05-13T07:56:06.683Z,21.31
2023-05-13T07:59:13.264Z,21.03
2023-05-13T08:02:18.588Z,21.40
2023-05-13T08:05:25.488Z,22.24
2023-05-13T08:08:30.501Z,21.45
2023-05-13T08:11:36.829Z,20.80
2023-05-13T08:14:42.447Z,21.21
2023-05-13T08:17:47.834Z,21.69
2023-05-13T08:20:53.611Z,20.55
2023-05-13T08:24:00.406Z,20.99
2023-05-13T08:27:05.116Z,21.52
2023-05-13T08:30:11.315Z,20.89
2023-05-13T08:33:18.003Z,20.66
2023-05-13T08:36:24.569Z,21.72
2023-05-13T08:39:29.733Z,21.73
2023-05-13T08:42:34.978Z,21.58
2023-05-13T08:45:40.526Z,20.49
2023-05-13T08:48:46.278Z,21.39
2023-05-13T08:51:51.158Z,22.37
2023-05-13T08:54:56.683Z,21.52
2023-05-13T08:57:56.037Z,21.03
2023-05-13T09:01:03.262Z,21.27
2023-05-13T09:04:18.522Z,20.62
2023-05-13T09:07:24.419Z,21.10
2023-05-13T09:10:30.373Z,19.91
2023-05-13T09:13:36.109Z,19.11
2023-05-13T09:16:43.024Z,19.74
2023-05-13T09:19:49.541Z,19.72
2023-05-13T09:23:05.804Z,19.92
2023-05-13T09:26:11.300Z,20.15
2023-05-13T09:29:39.757Z,19.17
2023-05-13T09:32:47.322Z,20.09
2023-05-13T09:35:50.822Z,19.29
2023-05-13T09:38:45.774Z,19.15
2023-05-13T09:41:52.686Z,19.40
2023-05-13T09:45:00.276Z,19.67
2023-05-13T09:48:05.992Z,19.75
2023-05-13T09:51:13.536Z,19.04
2023-05-13T09:54:21.763Z,19.60
2023-05-13T09:57:28.753Z,18.55
2023-05-13T10:00:35.956Z,19.76
2023-05-13T10:03:43.016Z,19.17
2023-05-13T10:06:48.726Z,19.29
2023-05-13T10:09:54.464Z,20.05
2023-05-13T10:13:00.634Z,20.08
2023-05-13T10:16:14.515Z,19.52
2023-05-13T10:19:20.728Z,19.05
2023-05-13T10:22:26.110Z,19.13
2023-05-13T10:25:39.048Z,19.55
2023-05-13T10:28:44.470Z,20.05
2023-05-13T10:31:49.732Z,19.61
2023-05-13T10:34:56.042Z,19.28
2023-05-13T10:38:29.804Z,19.82
2023-05-13T10:42:00.739Z,18.81
2023-05-13T10:45:08.601Z,18.26
2023-05-13T10:48:22.092Z,18.81
2023-05-13T10:51:31.905Z,18.44
2023-05-13T10:54:38.548Z,18.79
2023-05-13T10:57:50.289Z,18.39
2023-05-13T11:00:59.730Z,18.54
2023-05-13T11:04:10.289Z,18.94
2023-05-13T11:07:18.296Z,18.33
2023-05-13T11:10:40.019Z,19.19
2023-05-13T11:13:52.094Z,19.49
2023-05-13T11:17:05.198Z,19.14
2023-05-13T11:20:10.575Z,19.27
2023-05-13T11:23:16.013Z,19.14
2023-05-13T11:26:28.724Z,19.47
2023-05-13T11:29:51.464Z,19.50
2023-05-13T11:33:14.452Z,19.13
2023-05-13T11:36:20.002Z,19.36
2023-05-13T11:39:33.699Z,19.72
2023-05-13T11:42:40.052Z,19.47
2023-05-13T11:45:47.834Z,19.47
2023-05-13T11:48:55.420Z,19.86
2023-05-13T11:52:00.809Z,19.63
2023-05-13T11:55:07.192Z,19.89
2023-05-13T11:58:13.156Z,19.99
2023-05-13T12:01:19.044Z,19.75
2023-05-13T12:04:25.389Z,19.75
2023-05-13T12:07:40.914Z,20.64
2023-05-13T12:10:46.790Z,20.91
2023-05-13T12:13:52.560Z,21.84
2023-05-13T12:16:59.192Z,21.34
2023-05-13T12:20:26.544Z,21.03
2023-05-13T12:23:31.932Z,20.46
2023-05-13T12:26:29.848Z,20.57
2023-05-13T12:29:35.309Z,20.55
2023-05-13T12:32:41.302Z,20.56
2023-05-13T12:35:48.012Z,19.80
2023-05-13T12:38:53.445Z,19.99
2023-05-13T12:42:06.842Z,20.57
2023-05-13T12:45:12.838Z,20.79
2023-05-13T12:48:18.738Z,19.94
2023-05-13T12:51:24.671Z,20.49
2023-05-13T12:54:30.190Z,20.65
2023-05-13T12:57:31.075Z,20.30
2023-05-13T13:00:36.516Z,19.95
2023-05-13T13:03:42.431Z,20.10
2023-05-13T13:06:47.931Z,19.83
2023-05-13T13:09:54.143Z,20.22
2023-05-13T13:13:00.764Z,19.71
2023-05-13T13:16:06.923Z,19.73
2023-05-13T13:19:11.865Z,20.50
2023-05-13T13:22:17.300Z,20.29
2023-05-13T13:25:24.356Z,19.79
2023-05-13T13:28:31.214Z,19.69
2023-05-13T13:31:39.013Z,20.17
2023-05-13T13:34:44.475Z,20.01
2023-05-13T13:37:49.900Z,19.97
2023-05-13T13:40:57.352Z,19.53
2023-05-13T13:44:03.782Z,18.91
2023-05-13T13:47:09.905Z,19.05
2023-05-13T13:50:15.730Z,18.89
2023-05-13T13:53:21.605Z,19.98
2023-05-13T13:56:27.803Z,19.36
2023-05-13T13:59:26.687Z,19.88
2023-05-13T14:02:34.078Z,20.03
2023-05-13T14:05:39.802Z,19.39
2023-05-13T14:08:45.544Z,20.77
2023-05-13T14:11:45.396Z,19.60
2023-05-13T14:14:50.978Z,19.38
2023-05-13T14:17:57.028Z,19.54
2023-05-13T14:21:03.277Z,19.92
2023-05-13T14:24:08.829Z,20.83
2023-05-13T14:27:15.737Z,20.21
2023-05-13T14:30:22.251Z,20.67
2023-05-13T14:33:28.554Z,20.27
2023-05-13T14:36:34.285Z,20.25
2023-05-13T14:39:39.160Z,20.06
2023-05-13T14:42:37.101Z,20.86
2023-05-13T14:45:42.867Z,21.59
2023-05-13T14:48:41.817Z,21.25
2023-05-13T14:51:47.626Z,20.86
2023-05-13T14:54:47.460Z,20.59
2023-05-13T14:57:53.980Z,20.69
2023-05-13T15:01:00.558Z,20.03
2023-05-13T15:04:08.569Z,19.74
2023-05-13T15:07:15.217Z,20.58
2023-05-13T15:10:22.195Z,20.55
2023-05-13T15:13:31.565Z,21.23
2023-05-13T15:16:36.756Z,21.89
2023-05-13T15:19:42.677Z,21.68
2023-05-13T15:22:48.555Z,22.22
2023-05-13T15:25:47.946Z,22.27
2023-05-13T15:28:40.848Z,21.20
2023-05-13T15:31:47.521Z,21.57
2023-05-13T15:34:54.286Z,21.16
2023-05-13T15:38:00.622Z,21.60
2023-05-13T15:41:05.505Z,21.43
2023-05-13T15:44:11.906Z,21.68
2023-05-13T15:47:18.288Z,21.87
2023-05-13T15:50:25.441Z,22.80
2023-05-13T15:53:30.881Z,22.86
2023-05-13T15:56:37.869Z,22.82
2023-05-13T15:59:42.797Z,23.17
2023-05-13T16:02:45.973Z,22.77
2023-05-13T16:05:31.363Z,23.35
2023-05-13T16:08:23.673Z,23.85
2023-05-13T16:11:09.657Z,23.48
2023-05-13T16:14:02.905Z,23.52
2023-05-13T16:17:07.269Z,24.17
2023-05-13T16:20:13.685Z,24.76
2023-05-13T16:23:21.236Z,24.20
2023-05-13T16:26:28.370Z,24.23
2023-05-13T16:29:34.603Z,28.57
2023-05-13T16:32:41.699Z,33.18
2023-05-13T16:35:47.154Z,32.25
2023-05-13T16:38:54.812Z,31.94
2023-05-13T16:41:59.855Z,32.24
2023-05-13T16:45:06.095Z,32.09
2023-05-13T16:48:12.202Z,32.47
2023-05-13T16:51:18.720Z,33.77
2023-05-13T16:54:23.972Z,34.66
2023-05-13T16:57:30.499Z,36.32
2023-05-13T17:00:37.169Z,36.62
2023-05-13T17:03:43.617Z,35.09
2023-05-13T17:06:50.501Z,33.60
2023-05-13T17:09:56.450Z,32.73
2023-05-13T17:13:02.200Z,33.12
2023-05-13T17:16:08.719Z,32.37
2023-05-13T17:19:14.726Z,33.01
2023-05-13T17:22:19.796Z,34.18
2023-05-13T17:25:24.529Z,34.26
2023-05-13T17:28:29.990Z,33.38
2023-05-13T17:31:35.782Z,32.56
2023-05-13T17:34:41.014Z,34.41
2023-05-13T17:37:46.593Z,33.79
2023-05-13T17:40:52.920Z,35.96
2023-05-13T17:43:58.527Z,37.84
2023-05-13T17:47:04.637Z,39.51
2023-05-13T17:50:09.448Z,41.08
2023-05-13T17:53:15.167Z,41.12
2023-05-13T17:56:21.428Z,41.08
2023-05-13T17:59:27.228Z,41.61
2023-05-13T18:02:32.901Z,40.30
2023-05-13T18:05:39.829Z,40.90
2023-05-13T18:08:46.663Z,40.33
2023-05-13T18:11:51.999Z,40.58
2023-05-13T18:14:57.959Z,40.72
2023-05-13T18:18:04.408Z,41.73
2023-05-13T18:21:09.956Z,43.47
2023-05-13T18:24:15.545Z,44.25
2023-05-13T18:27:22.230Z,45.05
2023-05-13T18:30:31.030Z,44.15
2023-05-13T18:33:36.527Z,44.41
2023-05-13T18:36:42.944Z,45.65
2023-05-13T18:39:50.882Z,46.46
2023-05-13T18:42:49.417Z,47.14
2023-05-13T18:45:41.684Z,47.29
2023-05-13T18:48:47.679Z,48.30
2023-05-13T18:51:53.449Z,48.92
2023-05-13T18:54:59.316Z,49.61
2023-05-13T18:58:06.017Z,48.25
2023-05-13T19:01:13.376Z,46.97
2023-05-13T19:04:21.032Z,48.24
2023-05-13T19:07:27.622Z,49.46
2023-05-13T19:10:39.102Z,50.02
2023-05-13T19:16:48.439Z,51.37
2023-05-13T19:19:54.488Z,51.36
2023-05-13T19:23:00.272Z,48.21
2023-05-13T19:26:05.371Z,47.14
2023-05-13T19:29:11.568Z,46.31
2023-05-13T19:32:16.240Z,47.86
2023-05-13T19:35:23.585Z,47.45
2023-05-13T19:38:31.447Z,48.33
2023-05-13T19:41:37.248Z,47.67
2023-05-13T19:44:42.271Z,46.55
2023-05-13T19:47:48.959Z,45.80
2023-05-13T19:50:55.515Z,45.40
2023-05-13T19:54:01.325Z,44.85
2023-05-13T19:57:07.837Z,44.91
2023-05-13T20:00:13.274Z,44.30
2023-05-13T20:03:20.293Z,44.20
2023-05-13T20:06:26.651Z,45.81
2023-05-13T20:09:33.938Z,47.23
2023-05-13T20:12:39.815Z,47.08
2023-05-13T20:15:47.243Z,46.40
2023-05-13T20:18:53.222Z,46.70
2023-05-13T20:21:58.758Z,46.31
2023-05-13T20:25:08.183Z,46.17
2023-05-13T20:28:06.871Z,45.85
2023-05-13T20:30:53.604Z,45.69
2023-05-13T20:33:46.051Z,45.39
2023-05-13T20:36:51.830Z,45.70
2023-05-13T20:39:57.967Z,46.01
2023-05-13T20:43:02.747Z,46.20
2023-05-13T20:46:08.614Z,46.48
2023-05-13T20:49:14.629Z,46.39
2023-05-13T20:52:20.004Z,46.06
2023-05-13T20:55:27.694Z,45.89
2023-05-13T20:58:32.899Z,45.92
2023-05-13T21:01:40.561Z,45.90
2023-05-13T21:04:47.110Z,46.02
2023-05-13T21:07:52.707Z,46.31
2023-05-13T21:10:57.717Z,45.96
2023-05-13T21:14:03.489Z,46.04
2023-05-13T21:17:10.232Z,46.17
2023-05-13T21:20:15.923Z,45.72
2023-05-13T21:23:22.442Z,45.04
2023-05-13T21:26:29.322Z,44.98
2023-05-13T21:29:36.933Z,45.19
2023-05-13T21:32:41.904Z,45.12
2023-05-13T21:35:48.958Z,45.21
2023-05-13T21:38:55.663Z,45.75
2023-05-13T21:42:00.698Z,45.74
2023-05-13T21:45:06.201Z,45.78
2023-05-13T21:48:11.528Z,45.75
2023-05-13T21:51:17.160Z,45.75
2023-05-13T21:54:22.808Z,45.68
2023-05-13T21:57:29.198Z,45.10
2023-05-13T22:00:34.894Z,45.63
2023-05-13T22:03:40.021Z,44.99
2023-05-13T22:06:40.408Z,45.18
2023-05-13T22:09:32.679Z,44.88
2023-05-13T22:12:37.596Z,44.82
2023-05-13T22:15:43.627Z,44.57
2023-05-13T22:18:43.963Z,44.41
2023-05-13T22:21:49.593Z,44.71
2023-05-13T22:24:56.801Z,44.84
2023-05-13T22:28:02.455Z,44.66
2023-05-13T22:31:07.396Z,45.15
2023-05-13T22:34:13.115Z,44.98
2023-05-13T22:37:19.236Z,44.16
2023-05-13T22:40:25.680Z,44.17
2023-05-13T22:43:31.901Z,44.08
2023-05-13T22:46:37.669Z,44.52
2023-05-13T22:49:43.186Z,44.63
2023-05-13T22:52:49.379Z,44.97
2023-05-13T22:55:55.818Z,45.13
2023-05-13T22:59:01.257Z,45.14
2023-05-13T23:02:07.814Z,45.24
2023-05-13T23:05:14.573Z,45.39
2023-05-13T23:08:20.213Z,44.70
2023-05-13T23:11:26.092Z,45.11
2023-05-13T23:14:33.967Z,45.33
2023-05-13T23:17:39.611Z,45.43
2023-05-13T23:20:44.664Z,45.67
2023-05-13T23:23:51.402Z,45.32
2023-05-13T23:26:57.536Z,45.65
2023-05-13T23:30:02.624Z,45.80
2023-05-13T23:33:08.466Z,45.74
2023-05-13T23:36:13.949Z,45.93
2023-05-13T23:39:20.726Z,45.70
2023-05-13T23:42:25.762Z,45.37
2023-05-13T23:45:31.773Z,45.88
2023-05-13T23:48:38.283Z,45.65
2023-05-13T23:51:43.994Z,45.42
2023-05-13T23:54:50.342Z,45.07
2023-05-13T23:57:56.967Z,44.86
